sensor_id;sensor_type;location;lat;lon;timestamp;P1;durP1;ratioP1;P2;durP2;ratioP2
13147;SDS011;6639;50.956;4.242;2023-11-21T00:00:12;28.42;;;18.58;;
13147;SDS011;6639;50.956;4.242;2023-11-21T00:02:40;29.38;;;18.35;;
13147;SDS011;6639;50.956;4.242;2023-11-21T00:05:07;23.90;;;17.60;;
13147;SDS011;6639;50.956;4.242;2023-11-21T00:07:36;23.58;;;17.58;;
13147;SDS011;6639;50.956;4.242;2023-11-21T00:10:03;22.33;;;16.17;;
13147;SDS011;6639;50.956;4.242;2023-11-21T00:12:33;25.17;;;17.52;;
13147;SDS011;6639;50.956;4.242;2023-11-21T00:15:00;26.02;;;17.45;;
13147;SDS011;6639;50.956;4.242;2023-11-21T00:17:27;26.98;;;18.92;;
13147;SDS011;6639;50.956;4.242;2023-11-21T00:19:54;28.40;;;19.08;;
13147;SDS011;6639;50.956;4.242;2023-11-21T00:22:21;26.20;;;20.00;;
13147;SDS011;6639;50.956;4.242;2023-11-21T00:24:50;28.90;;;19.83;;
13147;SDS011;6639;50.956;4.242;2023-11-21T00:27:17;25.75;;;17.98;;
13147;SDS011;6639;50.956;4.242;2023-11-21T00:29:45;27.30;;;17.42;;
13147;SDS011;6639;50.956;4.242;2023-11-21T00:32:12;25.73;;;17.27;;
13147;SDS011;6639;50.956;4.242;2023-11-21T00:34:39;26.55;;;17.58;;
13147;SDS011;6639;50.956;4.242;2023-11-21T00:37:07;27.27;;;17.73;;
13147;SDS011;6639;50.956;4.242;2023-11-21T00:39:34;27.23;;;17.83;;
13147;SDS011;6639;50.956;4.242;2023-11-21T00:42:02;24.25;;;15.27;;
13147;SDS011;6639;50.956;4.242;2023-11-21T00:44:30;21.88;;;15.68;;
13147;SDS011;6639;50.956;4.242;2023-11-21T00:46:59;26.40;;;16.48;;
13147;SDS011;6639;50.956;4.242;2023-11-21T00:49:26;22.33;;;15.40;;
13147;SDS011;6639;50.956;4.242;2023-11-21T00:51:53;26.13;;;17.80;;
13147;SDS011;6639;50.956;4.242;2023-11-21T00:54:20;30.70;;;18.63;;
13147;SDS011;6639;50.956;4.242;2023-11-21T00:56:48;25.73;;;17.73;;
13147;SDS011;6639;50.956;4.242;2023-11-21T00:59:16;23.30;;;17.08;;
13147;SDS011;6639;50.956;4.242;2023-11-21T01:01:43;29.05;;;17.77;;
13147;SDS011;6639;50.956;4.242;2023-11-21T01:04:10;28.02;;;19.85;;
13147;SDS011;6639;50.956;4.242;2023-11-21T01:06:38;27.70;;;19.13;;
13147;SDS011;6639;50.956;4.242;2023-11-21T01:09:05;24.23;;;16.83;;
13147;SDS011;6639;50.956;4.242;2023-11-21T01:11:33;29.10;;;19.02;;
13147;SDS011;6639;50.956;4.242;2023-11-21T01:14:01;26.67;;;17.42;;
13147;SDS011;6639;50.956;4.242;2023-11-21T01:16:31;26.45;;;17.55;;
13147;SDS011;6639;50.956;4.242;2023-11-21T01:18:58;23.75;;;16.77;;
13147;SDS011;6639;50.956;4.242;2023-11-21T01:21:26;25.25;;;17.00;;
13147;SDS011;6639;50.956;4.242;2023-11-21T01:23:54;25.65;;;17.48;;
13147;SDS011;6639;50.956;4.242;2023-11-21T01:26:21;24.73;;;17.75;;
13147;SDS011;6639;50.956;4.242;2023-11-21T01:28:48;24.65;;;16.38;;
13147;SDS011;6639;50.956;4.242;2023-11-21T01:31:15;24.90;;;17.20;;
13147;SDS011;6639;50.956;4.242;2023-11-21T01:33:44;25.05;;;17.77;;
13147;SDS011;6639;50.956;4.242;2023-11-21T01:36:11;21.23;;;16.33;;
13147;SDS011;6639;50.956;4.242;2023-11-21T01:38:38;25.73;;;17.65;;
13147;SDS011;6639;50.956;4.242;2023-11-21T01:41:05;24.70;;;16.80;;
13147;SDS011;6639;50.956;4.242;2023-11-21T01:43:32;29.27;;;15.98;;
13147;SDS011;6639;50.956;4.242;2023-11-21T01:45:59;24.10;;;16.90;;
13147;SDS011;6639;50.956;4.242;2023-11-21T01:48:26;27.10;;;18.60;;
13147;SDS011;6639;50.956;4.242;2023-11-21T01:50:56;25.55;;;18.02;;
13147;SDS011;6639;50.956;4.242;2023-11-21T01:53:23;24.40;;;18.10;;
13147;SDS011;6639;50.956;4.242;2023-11-21T01:55:52;24.63;;;18.02;;
13147;SDS011;6639;50.956;4.242;2023-11-21T01:58:20;21.35;;;16.88;;
13147;SDS011;6639;50.956;4.242;2023-11-21T02:00:47;27.05;;;17.15;;
13147;SDS011;6639;50.956;4.242;2023-11-21T02:03:16;25.10;;;16.73;;
13147;SDS011;6639;50.956;4.242;2023-11-21T02:05:44;28.23;;;18.75;;
13147;SDS011;6639;50.956;4.242;2023-11-21T02:08:13;20.35;;;16.38;;
13147;SDS011;6639;50.956;4.242;2023-11-21T02:10:40;21.75;;;15.57;;
13147;SDS011;6639;50.956;4.242;2023-11-21T02:13:07;22.58;;;16.85;;
13147;SDS011;6639;50.956;4.242;2023-11-21T02:15:34;24.00;;;16.50;;
13147;SDS011;6639;50.956;4.242;2023-11-21T02:18:01;20.13;;;14.57;;
13147;SDS011;6639;50.956;4.242;2023-11-21T02:20:28;22.17;;;16.00;;
13147;SDS011;6639;50.956;4.242;2023-11-21T02:22:56;22.67;;;16.48;;
13147;SDS011;6639;50.956;4.242;2023-11-21T02:25:24;20.33;;;15.38;;
13147;SDS011;6639;50.956;4.242;2023-11-21T02:27:52;22.23;;;16.17;;
13147;SDS011;6639;50.956;4.242;2023-11-21T02:30:20;22.98;;;16.00;;
13147;SDS011;6639;50.956;4.242;2023-11-21T02:32:47;23.40;;;16.67;;
13147;SDS011;6639;50.956;4.242;2023-11-21T02:35:14;21.63;;;15.40;;
13147;SDS011;6639;50.956;4.242;2023-11-21T02:37:42;19.35;;;15.20;;
13147;SDS011;6639;50.956;4.242;2023-11-21T02:40:11;20.83;;;15.75;;
13147;SDS011;6639;50.956;4.242;2023-11-21T02:42:38;21.67;;;15.40;;
13147;SDS011;6639;50.956;4.242;2023-11-21T02:45:06;20.70;;;14.88;;
13147;SDS011;6639;50.956;4.242;2023-11-21T02:47:34;20.02;;;16.58;;
13147;SDS011;6639;50.956;4.242;2023-11-21T02:50:01;19.40;;;15.40;;
13147;SDS011;6639;50.956;4.242;2023-11-21T02:52:28;22.60;;;17.08;;
13147;SDS011;6639;50.956;4.242;2023-11-21T02:54:58;20.00;;;15.68;;
13147;SDS011;6639;50.956;4.242;2023-11-21T02:57:26;19.73;;;15.57;;
13147;SDS011;6639;50.956;4.242;2023-11-21T02:59:54;20.50;;;15.60;;
13147;SDS011;6639;50.956;4.242;2023-11-21T03:02:22;18.60;;;15.40;;
13147;SDS011;6639;50.956;4.242;2023-11-21T03:04:49;23.75;;;16.17;;
13147;SDS011;6639;50.956;4.242;2023-11-21T03:07:16;20.55;;;15.27;;
13147;SDS011;6639;50.956;4.242;2023-11-21T03:09:44;20.30;;;14.70;;
13147;SDS011;6639;50.956;4.242;2023-11-21T03:12:11;19.80;;;15.77;;
13147;SDS011;6639;50.956;4.242;2023-11-21T03:14:40;21.55;;;15.98;;
13147;SDS011;6639;50.956;4.242;2023-11-21T03:17:07;20.67;;;16.45;;
13147;SDS011;6639;50.956;4.242;2023-11-21T03:19:34;22.00;;;16.50;;
13147;SDS011;6639;50.956;4.242;2023-11-21T03:22:00;19.15;;;15.65;;
13147;SDS011;6639;50.956;4.242;2023-11-21T03:24:29;18.33;;;15.35;;
13147;SDS011;6639;50.956;4.242;2023-11-21T03:26:56;20.77;;;15.13;;
13147;SDS011;6639;50.956;4.242;2023-11-21T03:29:23;20.33;;;14.70;;
13147;SDS011;6639;50.956;4.242;2023-11-21T03:31:51;18.95;;;14.85;;
13147;SDS011;6639;50.956;4.242;2023-11-21T03:34:22;20.60;;;15.45;;
13147;SDS011;6639;50.956;4.242;2023-11-21T03:36:51;19.77;;;15.05;;
13147;SDS011;6639;50.956;4.242;2023-11-21T03:39:18;19.23;;;15.52;;
13147;SDS011;6639;50.956;4.242;2023-11-21T03:41:45;19.30;;;15.10;;
13147;SDS011;6639;50.956;4.242;2023-11-21T03:44:12;19.90;;;14.63;;
13147;SDS011;6639;50.956;4.242;2023-11-21T03:46:40;16.10;;;13.25;;
13147;SDS011;6639;50.956;4.242;2023-11-21T03:49:08;20.90;;;13.88;;
13147;SDS011;6639;50.956;4.242;2023-11-21T03:51:35;19.33;;;13.65;;
13147;SDS011;6639;50.956;4.242;2023-11-21T03:54:03;17.55;;;13.82;;
13147;SDS011;6639;50.956;4.242;2023-11-21T03:56:30;20.60;;;16.42;;
13147;SDS011;6639;50.956;4.242;2023-11-21T03:58:57;22.08;;;16.23;;
13147;SDS011;6639;50.956;4.242;2023-11-21T04:01:24;23.33;;;15.85;;
13147;SDS011;6639;50.956;4.242;2023-11-21T04:03:51;17.27;;;13.38;;
13147;SDS011;6639;50.956;4.242;2023-11-21T04:06:20;18.98;;;15.25;;
13147;SDS011;6639;50.956;4.242;2023-11-21T04:08:47;19.92;;;14.95;;
13147;SDS011;6639;50.956;4.242;2023-11-21T04:11:13;19.60;;;16.45;;
13147;SDS011;6639;50.956;4.242;2023-11-21T04:13:41;21.63;;;16.90;;
13147;SDS011;6639;50.956;4.242;2023-11-21T04:16:08;21.67;;;17.23;;
13147;SDS011;6639;50.956;4.242;2023-11-21T04:18:35;16.98;;;15.02;;
13147;SDS011;6639;50.956;4.242;2023-11-21T04:21:03;20.05;;;16.17;;
13147;SDS011;6639;50.956;4.242;2023-11-21T04:23:32;17.77;;;15.32;;
13147;SDS011;6639;50.956;4.242;2023-11-21T04:26:00;20.20;;;16.75;;
13147;SDS011;6639;50.956;4.242;2023-11-21T04:28:27;20.52;;;16.85;;
13147;SDS011;6639;50.956;4.242;2023-11-21T04:30:54;17.15;;;14.70;;
13147;SDS011;6639;50.956;4.242;2023-11-21T04:33:21;20.55;;;15.80;;
13147;SDS011;6639;50.956;4.242;2023-11-21T04:35:48;18.50;;;15.55;;
13147;SDS011;6639;50.956;4.242;2023-11-21T04:38:15;18.15;;;15.30;;
13147;SDS011;6639;50.956;4.242;2023-11-21T04:40:43;20.05;;;17.45;;
13147;SDS011;6639;50.956;4.242;2023-11-21T04:43:10;17.75;;;15.63;;
13147;SDS011;6639;50.956;4.242;2023-11-21T04:45:37;19.35;;;15.98;;
13147;SDS011;6639;50.956;4.242;2023-11-21T04:48:06;24.90;;;17.20;;
13147;SDS011;6639;50.956;4.242;2023-11-21T04:50:33;20.50;;;16.70;;
13147;SDS011;6639;50.956;4.242;2023-11-21T04:53:00;19.95;;;15.85;;
13147;SDS011;6639;50.956;4.242;2023-11-21T04:55:27;19.75;;;15.85;;
13147;SDS011;6639;50.956;4.242;2023-11-21T04:57:55;19.48;;;16.75;;
13147;SDS011;6639;50.956;4.242;2023-11-21T05:00:22;19.35;;;16.88;;
13147;SDS011;6639;50.956;4.242;2023-11-21T05:02:50;18.73;;;15.07;;
13147;SDS011;6639;50.956;4.242;2023-11-21T05:05:18;26.40;;;16.92;;
13147;SDS011;6639;50.956;4.242;2023-11-21T05:07:45;22.17;;;16.70;;
13147;SDS011;6639;50.956;4.242;2023-11-21T05:10:14;20.75;;;16.85;;
13147;SDS011;6639;50.956;4.242;2023-11-21T05:12:41;18.95;;;14.68;;
13147;SDS011;6639;50.956;4.242;2023-11-21T05:15:11;21.27;;;14.98;;
13147;SDS011;6639;50.956;4.242;2023-11-21T05:17:41;19.15;;;15.75;;
13147;SDS011;6639;50.956;4.242;2023-11-21T05:20:09;16.67;;;14.88;;
13147;SDS011;6639;50.956;4.242;2023-11-21T05:22:38;20.85;;;15.80;;
13147;SDS011;6639;50.956;4.242;2023-11-21T05:25:06;16.85;;;14.68;;
13147;SDS011;6639;50.956;4.242;2023-11-21T05:27:34;17.77;;;14.20;;
13147;SDS011;6639;50.956;4.242;2023-11-21T05:30:01;15.38;;;13.30;;
13147;SDS011;6639;50.956;4.242;2023-11-21T05:32:31;17.25;;;13.80;;
13147;SDS011;6639;50.956;4.242;2023-11-21T05:34:59;18.88;;;14.90;;
13147;SDS011;6639;50.956;4.242;2023-11-21T05:37:26;17.52;;;14.02;;
13147;SDS011;6639;50.956;4.242;2023-11-21T05:39:53;15.43;;;13.80;;
13147;SDS011;6639;50.956;4.242;2023-11-21T05:42:21;17.67;;;14.15;;
13147;SDS011;6639;50.956;4.242;2023-11-21T05:44:48;19.38;;;16.15;;
13147;SDS011;6639;50.956;4.242;2023-11-21T05:47:15;20.17;;;15.10;;
13147;SDS011;6639;50.956;4.242;2023-11-21T05:49:44;17.23;;;13.77;;
13147;SDS011;6639;50.956;4.242;2023-11-21T05:52:15;16.35;;;14.60;;
13147;SDS011;6639;50.956;4.242;2023-11-21T05:54:42;19.63;;;14.75;;
13147;SDS011;6639;50.956;4.242;2023-11-21T05:57:09;19.92;;;15.98;;
13147;SDS011;6639;50.956;4.242;2023-11-21T05:59:36;17.23;;;14.32;;
13147;SDS011;6639;50.956;4.242;2023-11-21T06:02:03;17.92;;;14.80;;
13147;SDS011;6639;50.956;4.242;2023-11-21T06:04:30;19.33;;;16.05;;
13147;SDS011;6639;50.956;4.242;2023-11-21T06:06:59;21.17;;;15.93;;
13147;SDS011;6639;50.956;4.242;2023-11-21T06:09:26;20.83;;;16.45;;
13147;SDS011;6639;50.956;4.242;2023-11-21T06:11:53;18.38;;;15.00;;
13147;SDS011;6639;50.956;4.242;2023-11-21T06:14:20;16.67;;;14.00;;
13147;SDS011;6639;50.956;4.242;2023-11-21T06:16:47;19.42;;;15.52;;
13147;SDS011;6639;50.956;4.242;2023-11-21T06:19:16;22.48;;;15.32;;
13147;SDS011;6639;50.956;4.242;2023-11-21T06:21:45;19.08;;;15.85;;
13147;SDS011;6639;50.956;4.242;2023-11-21T06:24:13;17.55;;;14.70;;
13147;SDS011;6639;50.956;4.242;2023-11-21T06:26:41;16.02;;;14.38;;
13147;SDS011;6639;50.956;4.242;2023-11-21T06:29:09;20.52;;;15.45;;
13147;SDS011;6639;50.956;4.242;2023-11-21T06:31:36;18.75;;;15.77;;
13147;SDS011;6639;50.956;4.242;2023-11-21T06:34:03;18.98;;;16.63;;
13147;SDS011;6639;50.956;4.242;2023-11-21T06:36:30;23.77;;;17.38;;
13147;SDS011;6639;50.956;4.242;2023-11-21T06:38:57;19.73;;;16.50;;
13147;SDS011;6639;50.956;4.242;2023-11-21T06:41:25;18.67;;;16.55;;
13147;SDS011;6639;50.956;4.242;2023-11-21T06:43:54;27.40;;;18.48;;
13147;SDS011;6639;50.956;4.242;2023-11-21T06:46:20;19.55;;;15.75;;
13147;SDS011;6639;50.956;4.242;2023-11-21T06:48:47;21.60;;;16.67;;
13147;SDS011;6639;50.956;4.242;2023-11-21T06:51:15;22.98;;;16.77;;
13147;SDS011;6639;50.956;4.242;2023-11-21T06:53:42;20.98;;;16.90;;
13147;SDS011;6639;50.956;4.242;2023-11-21T06:56:15;19.40;;;15.75;;
13147;SDS011;6639;50.956;4.242;2023-11-21T06:58:44;21.30;;;16.95;;
13147;SDS011;6639;50.956;4.242;2023-11-21T07:01:11;18.30;;;15.27;;
13147;SDS011;6639;50.956;4.242;2023-11-21T07:03:40;20.90;;;16.65;;
13147;SDS011;6639;50.956;4.242;2023-11-21T07:06:07;20.92;;;17.42;;
13147;SDS011;6639;50.956;4.242;2023-11-21T07:08:35;22.45;;;18.85;;
13147;SDS011;6639;50.956;4.242;2023-11-21T07:11:02;20.33;;;17.38;;
13147;SDS011;6639;50.956;4.242;2023-11-21T07:13:29;21.50;;;16.27;;
13147;SDS011;6639;50.956;4.242;2023-11-21T07:15:57;21.33;;;16.00;;
13147;SDS011;6639;50.956;4.242;2023-11-21T07:18:25;22.58;;;15.85;;
13147;SDS011;6639;50.956;4.242;2023-11-21T07:20:52;22.77;;;15.85;;
13147;SDS011;6639;50.956;4.242;2023-11-21T07:23:19;19.83;;;16.40;;
13147;SDS011;6639;50.956;4.242;2023-11-21T07:25:47;23.48;;;16.63;;
13147;SDS011;6639;50.956;4.242;2023-11-21T07:28:14;22.30;;;16.13;;
13147;SDS011;6639;50.956;4.242;2023-11-21T07:30:41;19.88;;;16.77;;
13147;SDS011;6639;50.956;4.242;2023-11-21T07:33:10;19.95;;;15.63;;
13147;SDS011;6639;50.956;4.242;2023-11-21T07:35:37;18.40;;;16.42;;
13147;SDS011;6639;50.956;4.242;2023-11-21T07:38:04;24.77;;;17.63;;
13147;SDS011;6639;50.956;4.242;2023-11-21T07:40:31;21.38;;;16.70;;
13147;SDS011;6639;50.956;4.242;2023-11-21T07:42:59;20.20;;;16.10;;
13147;SDS011;6639;50.956;4.242;2023-11-21T07:45:26;23.60;;;17.23;;
13147;SDS011;6639;50.956;4.242;2023-11-21T07:47:53;19.33;;;17.15;;
13147;SDS011;6639;50.956;4.242;2023-11-21T07:50:22;22.60;;;16.30;;
13147;SDS011;6639;50.956;4.242;2023-11-21T07:52:49;27.33;;;17.55;;
13147;SDS011;6639;50.956;4.242;2023-11-21T07:55:16;24.38;;;18.25;;
13147;SDS011;6639;50.956;4.242;2023-11-21T07:57:43;24.73;;;17.50;;
13147;SDS011;6639;50.956;4.242;2023-11-21T08:00:10;18.95;;;15.82;;
13147;SDS011;6639;50.956;4.242;2023-11-21T08:02:40;24.92;;;17.63;;
13147;SDS011;6639;50.956;4.242;2023-11-21T08:05:08;20.17;;;16.65;;
13147;SDS011;6639;50.956;4.242;2023-11-21T08:07:38;24.63;;;17.50;;
13147;SDS011;6639;50.956;4.242;2023-11-21T08:10:05;19.95;;;15.52;;
13147;SDS011;6639;50.956;4.242;2023-11-21T08:12:35;29.90;;;19.20;;
13147;SDS011;6639;50.956;4.242;2023-11-21T08:15:04;27.42;;;18.30;;
13147;SDS011;6639;50.956;4.242;2023-11-21T08:17:32;22.35;;;17.33;;
13147;SDS011;6639;50.956;4.242;2023-11-21T08:20:00;25.55;;;17.52;;
13147;SDS011;6639;50.956;4.242;2023-11-21T08:22:28;24.70;;;18.77;;
13147;SDS011;6639;50.956;4.242;2023-11-21T08:24:57;25.02;;;17.88;;
13147;SDS011;6639;50.956;4.242;2023-11-21T08:27:24;28.45;;;19.85;;
13147;SDS011;6639;50.956;4.242;2023-11-21T08:29:51;27.08;;;20.30;;
13147;SDS011;6639;50.956;4.242;2023-11-21T08:32:18;24.85;;;18.00;;
13147;SDS011;6639;50.956;4.242;2023-11-21T08:34:45;28.35;;;19.73;;
13147;SDS011;6639;50.956;4.242;2023-11-21T08:37:15;26.05;;;18.15;;
13147;SDS011;6639;50.956;4.242;2023-11-21T08:39:43;26.02;;;18.50;;
13147;SDS011;6639;50.956;4.242;2023-11-21T08:42:12;31.33;;;17.50;;
13147;SDS011;6639;50.956;4.242;2023-11-21T08:44:39;25.88;;;19.50;;
13147;SDS011;6639;50.956;4.242;2023-11-21T08:47:06;24.40;;;16.88;;
13147;SDS011;6639;50.956;4.242;2023-11-21T08:49:33;24.52;;;18.40;;
13147;SDS011;6639;50.956;4.242;2023-11-21T08:52:00;19.63;;;17.27;;
13147;SDS011;6639;50.956;4.242;2023-11-21T08:54:27;22.42;;;18.10;;
13147;SDS011;6639;50.956;4.242;2023-11-21T08:56:54;24.38;;;17.75;;
13147;SDS011;6639;50.956;4.242;2023-11-21T08:59:24;26.85;;;18.33;;
13147;SDS011;6639;50.956;4.242;2023-11-21T09:01:51;22.70;;;17.90;;
13147;SDS011;6639;50.956;4.242;2023-11-21T09:04:18;26.50;;;18.55;;
13147;SDS011;6639;50.956;4.242;2023-11-21T09:06:45;22.27;;;17.45;;
13147;SDS011;6639;50.956;4.242;2023-11-21T09:09:12;27.02;;;18.45;;
13147;SDS011;6639;50.956;4.242;2023-11-21T09:11:39;22.17;;;17.30;;
13147;SDS011;6639;50.956;4.242;2023-11-21T09:14:06;25.67;;;17.90;;
13147;SDS011;6639;50.956;4.242;2023-11-21T09:16:35;23.08;;;17.33;;
13147;SDS011;6639;50.956;4.242;2023-11-21T09:19:02;23.45;;;17.08;;
13147;SDS011;6639;50.956;4.242;2023-11-21T09:21:30;29.33;;;19.23;;
13147;SDS011;6639;50.956;4.242;2023-11-21T09:23:58;24.08;;;18.60;;
13147;SDS011;6639;50.956;4.242;2023-11-21T09:26:25;25.83;;;19.02;;
13147;SDS011;6639;50.956;4.242;2023-11-21T09:28:52;29.58;;;18.55;;
13147;SDS011;6639;50.956;4.242;2023-11-21T09:31:19;24.90;;;18.05;;
13147;SDS011;6639;50.956;4.242;2023-11-21T09:33:49;23.10;;;17.02;;
13147;SDS011;6639;50.956;4.242;2023-11-21T09:36:16;22.77;;;16.92;;
13147;SDS011;6639;50.956;4.242;2023-11-21T09:38:43;22.35;;;17.33;;
13147;SDS011;6639;50.956;4.242;2023-11-21T09:41:11;24.13;;;16.55;;
13147;SDS011;6639;50.956;4.242;2023-11-21T09:43:47;22.63;;;17.38;;
13147;SDS011;6639;50.956;4.242;2023-11-21T09:46:18;22.17;;;17.60;;
13147;SDS011;6639;50.956;4.242;2023-11-21T09:48:50;22.77;;;16.58;;
13147;SDS011;6639;50.956;4.242;2023-11-21T09:51:18;22.58;;;17.15;;
13147;SDS011;6639;50.956;4.242;2023-11-21T09:53:48;22.35;;;16.40;;
13147;SDS011;6639;50.956;4.242;2023-11-21T09:56:18;21.10;;;17.52;;
13147;SDS011;6639;50.956;4.242;2023-11-21T09:58:50;23.40;;;17.95;;
13147;SDS011;6639;50.956;4.242;2023-11-21T10:01:18;26.23;;;17.77;;
13147;SDS011;6639;50.956;4.242;2023-11-21T10:03:47;22.30;;;17.55;;
13147;SDS011;6639;50.956;4.242;2023-11-21T10:06:15;22.27;;;16.48;;
13147;SDS011;6639;50.956;4.242;2023-11-21T10:08:44;18.27;;;14.52;;
13147;SDS011;6639;50.956;4.242;2023-11-21T10:11:11;18.25;;;14.43;;
13147;SDS011;6639;50.956;4.242;2023-11-21T10:13:40;18.05;;;15.13;;
13147;SDS011;6639;50.956;4.242;2023-11-21T10:16:10;16.10;;;14.32;;
13147;SDS011;6639;50.956;4.242;2023-11-21T10:18:41;15.63;;;14.00;;
13147;SDS011;6639;50.956;4.242;2023-11-21T10:21:11;15.45;;;13.80;;
13147;SDS011;6639;50.956;4.242;2023-11-21T10:23:40;29.42;;;15.63;;
13147;SDS011;6639;50.956;4.242;2023-11-21T10:26:08;23.20;;;15.00;;
13147;SDS011;6639;50.956;4.242;2023-11-21T10:28:41;16.50;;;13.85;;
13147;SDS011;6639;50.956;4.242;2023-11-21T10:31:21;16.10;;;13.50;;
13147;SDS011;6639;50.956;4.242;2023-11-21T10:33:49;23.08;;;15.23;;
13147;SDS011;6639;50.956;4.242;2023-11-21T10:36:24;15.98;;;14.30;;
13147;SDS011;6639;50.956;4.242;2023-11-21T10:38:54;15.90;;;14.30;;
13147;SDS011;6639;50.956;4.242;2023-11-21T10:41:22;18.58;;;15.48;;
13147;SDS011;6639;50.956;4.242;2023-11-21T10:43:52;17.40;;;14.15;;
13147;SDS011;6639;50.956;4.242;2023-11-21T10:46:20;15.25;;;13.20;;
13147;SDS011;6639;50.956;4.242;2023-11-21T10:48:52;16.23;;;14.52;;
13147;SDS011;6639;50.956;4.242;2023-11-21T10:51:20;16.60;;;14.90;;
13147;SDS011;6639;50.956;4.242;2023-11-21T10:53:47;15.77;;;14.10;;
13147;SDS011;6639;50.956;4.242;2023-11-21T10:56:18;16.20;;;13.48;;
13147;SDS011;6639;50.956;4.242;2023-11-21T10:58:46;16.45;;;13.85;;
13147;SDS011;6639;50.956;4.242;2023-11-21T11:01:15;14.48;;;12.95;;
13147;SDS011;6639;50.956;4.242;2023-11-21T11:03:46;16.80;;;14.20;;
13147;SDS011;6639;50.956;4.242;2023-11-21T11:06:13;15.80;;;13.05;;
13147;SDS011;6639;50.956;4.242;2023-11-21T11:08:41;16.48;;;13.43;;
13147;SDS011;6639;50.956;4.242;2023-11-21T11:11:07;13.90;;;12.13;;
13147;SDS011;6639;50.956;4.242;2023-11-21T11:13:39;14.85;;;13.38;;
13147;SDS011;6639;50.956;4.242;2023-11-21T11:16:11;14.77;;;11.98;;
13147;SDS011;6639;50.956;4.242;2023-11-21T11:18:42;13.02;;;11.73;;
13147;SDS011;6639;50.956;4.242;2023-11-21T11:21:11;12.15;;;10.77;;
13147;SDS011;6639;50.956;4.242;2023-11-21T11:23:55;10.13;;;9.13;;
13147;SDS011;6639;50.956;4.242;2023-11-21T11:26:36;10.00;;;8.40;;
13147;SDS011;6639;50.956;4.242;2023-11-21T11:29:14;8.98;;;7.65;;
13147;SDS011;6639;50.956;4.242;2023-11-21T11:31:54;8.50;;;7.57;;
13147;SDS011;6639;50.956;4.242;2023-11-21T11:34:30;12.02;;;7.40;;
13147;SDS011;6639;50.956;4.242;2023-11-21T11:37:00;7.85;;;7.05;;
13147;SDS011;6639;50.956;4.242;2023-11-21T11:39:29;8.52;;;6.20;;
13147;SDS011;6639;50.956;4.242;2023-11-21T11:41:57;7.75;;;5.63;;
13147;SDS011;6639;50.956;4.242;2023-11-21T11:47:19;6.82;;;6.18;;
13147;SDS011;6639;50.956;4.242;2023-11-21T11:50:01;9.48;;;5.80;;
13147;SDS011;6639;50.956;4.242;2023-11-21T11:52:37;10.90;;;5.05;;
13147;SDS011;6639;50.956;4.242;2023-11-21T11:55:06;6.15;;;4.93;;
13147;SDS011;6639;50.956;4.242;2023-11-21T11:57:36;6.93;;;4.82;;
13147;SDS011;6639;50.956;4.242;2023-11-21T12:00:09;7.47;;;4.40;;
13147;SDS011;6639;50.956;4.242;2023-11-21T12:02:41;7.68;;;4.75;;
13147;SDS011;6639;50.956;4.242;2023-11-21T12:05:09;5.43;;;4.43;;
13147;SDS011;6639;50.956;4.242;2023-11-21T12:07:45;6.15;;;4.43;;
13147;SDS011;6639;50.956;4.242;2023-11-21T12:10:13;8.45;;;4.55;;
13147;SDS011;6639;50.956;4.242;2023-11-21T12:12:43;8.13;;;4.78;;
13147;SDS011;6639;50.956;4.242;2023-11-21T12:15:16;8.27;;;4.43;;
13147;SDS011;6639;50.956;4.242;2023-11-21T12:17:44;8.18;;;4.28;;
13147;SDS011;6639;50.956;4.242;2023-11-21T12:20:12;7.25;;;4.38;;
13147;SDS011;6639;50.956;4.242;2023-11-21T12:22:44;8.80;;;4.40;;
13147;SDS011;6639;50.956;4.242;2023-11-21T12:25:14;8.55;;;5.35;;
13147;SDS011;6639;50.956;4.242;2023-11-21T12:27:43;6.97;;;4.75;;
13147;SDS011;6639;50.956;4.242;2023-11-21T12:30:12;6.35;;;4.70;;
13147;SDS011;6639;50.956;4.242;2023-11-21T12:32:42;7.05;;;4.10;;
13147;SDS011;6639;50.956;4.242;2023-11-21T12:35:11;7.10;;;4.32;;
13147;SDS011;6639;50.956;4.242;2023-11-21T12:37:39;7.32;;;4.38;;
13147;SDS011;6639;50.956;4.242;2023-11-21T12:40:08;9.10;;;4.93;;
13147;SDS011;6639;50.956;4.242;2023-11-21T12:42:39;8.27;;;4.75;;
13147;SDS011;6639;50.956;4.242;2023-11-21T12:45:07;6.05;;;4.15;;
13147;SDS011;6639;50.956;4.242;2023-11-21T12:47:39;7.85;;;5.47;;
13147;SDS011;6639;50.956;4.242;2023-11-21T12:50:11;6.70;;;4.85;;
13147;SDS011;6639;50.956;4.242;2023-11-21T12:52:42;5.65;;;4.38;;
13147;SDS011;6639;50.956;4.242;2023-11-21T12:55:15;9.45;;;4.75;;
13147;SDS011;6639;50.956;4.242;2023-11-21T12:57:43;6.15;;;5.18;;
13147;SDS011;6639;50.956;4.242;2023-11-21T13:00:12;9.95;;;5.45;;
13147;SDS011;6639;50.956;4.242;2023-11-21T13:02:53;8.60;;;5.40;;
13147;SDS011;6639;50.956;4.242;2023-11-21T13:05:29;7.13;;;5.25;;
13147;SDS011;6639;50.956;4.242;2023-11-21T13:07:59;6.13;;;4.43;;
13147;SDS011;6639;50.956;4.242;2023-11-21T13:10:28;5.00;;;4.60;;
13147;SDS011;6639;50.956;4.242;2023-11-21T13:12:56;5.45;;;4.95;;
13147;SDS011;6639;50.956;4.242;2023-11-21T13:15:25;4.57;;;4.15;;
13147;SDS011;6639;50.956;4.242;2023-11-21T13:17:54;5.97;;;5.32;;
13147;SDS011;6639;50.956;4.242;2023-11-21T13:20:22;4.85;;;4.40;;
13147;SDS011;6639;50.956;4.242;2023-11-21T13:22:51;5.00;;;4.45;;
13147;SDS011;6639;50.956;4.242;2023-11-21T13:25:22;7.25;;;5.28;;
13147;SDS011;6639;50.956;4.242;2023-11-21T13:27:52;6.10;;;5.05;;
13147;SDS011;6639;50.956;4.242;2023-11-21T13:30:19;7.22;;;5.75;;
13147;SDS011;6639;50.956;4.242;2023-11-21T13:32:51;10.15;;;5.60;;
13147;SDS011;6639;50.956;4.242;2023-11-21T13:35:20;8.57;;;7.65;;
13147;SDS011;6639;50.956;4.242;2023-11-21T13:37:49;11.00;;;7.68;;
13147;SDS011;6639;50.956;4.242;2023-11-21T13:40:21;7.95;;;6.40;;
13147;SDS011;6639;50.956;4.242;2023-11-21T13:42:50;6.88;;;6.20;;
13147;SDS011;6639;50.956;4.242;2023-11-21T13:45:20;7.82;;;6.55;;
13147;SDS011;6639;50.956;4.242;2023-11-21T13:47:48;6.20;;;5.47;;
13147;SDS011;6639;50.956;4.242;2023-11-21T13:50:17;7.18;;;5.30;;
13147;SDS011;6639;50.956;4.242;2023-11-21T13:52:51;5.40;;;4.90;;
13147;SDS011;6639;50.956;4.242;2023-11-21T13:55:19;4.55;;;4.05;;
13147;SDS011;6639;50.956;4.242;2023-11-21T13:57:49;5.40;;;4.90;;
13147;SDS011;6639;50.956;4.242;2023-11-21T14:00:17;4.30;;;4.00;;
13147;SDS011;6639;50.956;4.242;2023-11-21T14:03:06;4.18;;;3.88;;
13147;SDS011;6639;50.956;4.242;2023-11-21T14:05:43;5.13;;;4.00;;
13147;SDS011;6639;50.956;4.242;2023-11-21T14:08:12;6.13;;;4.30;;
13147;SDS011;6639;50.956;4.242;2023-11-21T14:10:42;4.20;;;3.83;;
13147;SDS011;6639;50.956;4.242;2023-11-21T14:13:10;3.70;;;3.40;;
13147;SDS011;6639;50.956;4.242;2023-11-21T14:15:38;3.28;;;2.90;;
13147;SDS011;6639;50.956;4.242;2023-11-21T14:18:08;3.35;;;2.95;;
13147;SDS011;6639;50.956;4.242;2023-11-21T14:20:37;3.90;;;2.67;;
13147;SDS011;6639;50.956;4.242;2023-11-21T14:23:07;3.50;;;2.67;;
13147;SDS011;6639;50.956;4.242;2023-11-21T14:25:36;4.30;;;2.92;;
13147;SDS011;6639;50.956;4.242;2023-11-21T14:28:07;3.08;;;2.70;;
13147;SDS011;6639;50.956;4.242;2023-11-21T14:30:36;7.97;;;4.07;;
13147;SDS011;6639;50.956;4.242;2023-11-21T14:33:04;5.90;;;3.42;;
13147;SDS011;6639;50.956;4.242;2023-11-21T14:35:33;4.90;;;3.85;;
13147;SDS011;6639;50.956;4.242;2023-11-21T14:38:00;7.28;;;4.13;;
13147;SDS011;6639;50.956;4.242;2023-11-21T14:40:31;6.30;;;3.63;;
13147;SDS011;6639;50.956;4.242;2023-11-21T14:43:00;3.03;;;2.83;;
13147;SDS011;6639;50.956;4.242;2023-11-21T14:45:30;4.43;;;3.22;;
13147;SDS011;6639;50.956;4.242;2023-11-21T14:47:57;2.38;;;2.10;;
13147;SDS011;6639;50.956;4.242;2023-11-21T14:50:31;2.50;;;2.30;;